sensor_id;sensor_type;location;lat;lon;timestamp;P1;durP1;ratioP1;P2;durP2;ratioP2
74650;SDS011;63169;46.042;14.592;2024-01-30T00:02:20;15.60;;;8.25;;
74650;SDS011;63169;46.042;14.592;2024-01-30T00:04:46;12.32;;;8.18;;
74650;SDS011;63169;46.042;14.592;2024-01-30T00:07:11;14.27;;;8.13;;
74650;SDS011;63169;46.042;14.592;2024-01-30T00:09:38;15.48;;;7.53;;
74650;SDS011;63169;46.042;14.592;2024-01-30T00:14:30;10.30;;;6.68;;
74650;SDS011;63169;46.042;14.592;2024-01-30T00:16:55;11.43;;;8.63;;
74650;SDS011;63169;46.042;14.592;2024-01-30T00:19:21;18.08;;;7.82;;
74650;SDS011;63169;46.042;14.592;2024-01-30T00:21:47;9.05;;;6.43;;
74650;SDS011;63169;46.042;14.592;2024-01-30T00:24:12;11.38;;;7.38;;
74650;SDS011;63169;46.042;14.592;2024-01-30T00:26:38;10.02;;;7.10;;
74650;SDS011;63169;46.042;14.592;2024-01-30T00:29:03;10.05;;;7.15;;
74650;SDS011;63169;46.042;14.592;2024-01-30T00:31:29;7.93;;;6.22;;
74650;SDS011;63169;46.042;14.592;2024-01-30T00:33:54;8.38;;;5.93;;
74650;SDS011;63169;46.042;14.592;2024-01-30T00:36:20;10.15;;;6.68;;
74650;SDS011;63169;46.042;14.592;2024-01-30T00:38:45;7.03;;;6.35;;
74650;SDS011;63169;46.042;14.592;2024-01-30T00:41:11;9.80;;;6.20;;
74650;SDS011;63169;46.042;14.592;2024-01-30T00:43:36;9.88;;;5.00;;
74650;SDS011;63169;46.042;14.592;2024-01-30T00:46:02;8.48;;;5.90;;
74650;SDS011;63169;46.042;14.592;2024-01-30T00:48:28;14.10;;;6.35;;
74650;SDS011;63169;46.042;14.592;2024-01-30T00:50:53;7.25;;;2.78;;
74650;SDS011;63169;46.042;14.592;2024-01-30T00:53:19;12.93;;;7.88;;
74650;SDS011;63169;46.042;14.592;2024-01-30T00:55:45;9.90;;;7.20;;
74650;SDS011;63169;46.042;14.592;2024-01-30T00:58:10;7.15;;;5.53;;
74650;SDS011;63169;46.042;14.592;2024-01-30T01:00:35;11.45;;;10.30;;
74650;SDS011;63169;46.042;14.592;2024-01-30T01:03:01;9.90;;;6.07;;
74650;SDS011;63169;46.042;14.592;2024-01-30T01:05:27;6.60;;;5.05;;
74650;SDS011;63169;46.042;14.592;2024-01-30T01:07:52;8.07;;;5.72;;
74650;SDS011;63169;46.042;14.592;2024-01-30T01:10:18;9.43;;;5.90;;
74650;SDS011;63169;46.042;14.592;2024-01-30T01:12:43;9.43;;;5.57;;
74650;SDS011;63169;46.042;14.592;2024-01-30T01:15:09;7.15;;;5.72;;
74650;SDS011;63169;46.042;14.592;2024-01-30T01:17:38;6.07;;;3.47;;
74650;SDS011;63169;46.042;14.592;2024-01-30T01:20:04;7.65;;;6.50;;
74650;SDS011;63169;46.042;14.592;2024-01-30T01:22:31;11.38;;;6.38;;
74650;SDS011;63169;46.042;14.592;2024-01-30T01:24:57;11.02;;;6.68;;
74650;SDS011;63169;46.042;14.592;2024-01-30T01:27:23;10.25;;;6.07;;
74650;SDS011;63169;46.042;14.592;2024-01-30T01:29:50;8.95;;;7.75;;
74650;SDS011;63169;46.042;14.592;2024-01-30T01:32:15;15.13;;;7.00;;
74650;SDS011;63169;46.042;14.592;2024-01-30T01:34:41;8.57;;;5.50;;
74650;SDS011;63169;46.042;14.592;2024-01-30T01:37:06;6.07;;;4.05;;
74650;SDS011;63169;46.042;14.592;2024-01-30T01:39:32;8.93;;;6.38;;
74650;SDS011;63169;46.042;14.592;2024-01-30T01:41:57;7.90;;;6.15;;
74650;SDS011;63169;46.042;14.592;2024-01-30T01:44:23;8.40;;;6.03;;
74650;SDS011;63169;46.042;14.592;2024-01-30T01:46:48;12.20;;;6.03;;
74650;SDS011;63169;46.042;14.592;2024-01-30T01:49:14;9.70;;;6.22;;
74650;SDS011;63169;46.042;14.592;2024-01-30T01:51:39;7.22;;;6.32;;
74650;SDS011;63169;46.042;14.592;2024-01-30T01:54:06;9.85;;;6.50;;
74650;SDS011;63169;46.042;14.592;2024-01-30T01:56:32;10.70;;;6.53;;
74650;SDS011;63169;46.042;14.592;2024-01-30T01:58:59;8.85;;;6.75;;
74650;SDS011;63169;46.042;14.592;2024-01-30T02:03:51;8.30;;;4.80;;
74650;SDS011;63169;46.042;14.592;2024-01-30T02:06:16;9.25;;;5.78;;
74650;SDS011;63169;46.042;14.592;2024-01-30T02:08:42;12.73;;;7.80;;
74650;SDS011;63169;46.042;14.592;2024-01-30T02:11:08;10.43;;;6.55;;
74650;SDS011;63169;46.042;14.592;2024-01-30T02:13:35;7.68;;;6.80;;
74650;SDS011;63169;46.042;14.592;2024-01-30T02:16:00;6.72;;;6.00;;
74650;SDS011;63169;46.042;14.592;2024-01-30T02:18:26;7.82;;;5.45;;
74650;SDS011;63169;46.042;14.592;2024-01-30T02:20:52;11.18;;;7.18;;
74650;SDS011;63169;46.042;14.592;2024-01-30T02:23:19;7.53;;;6.22;;
74650;SDS011;63169;46.042;14.592;2024-01-30T02:25:46;9.85;;;6.40;;
74650;SDS011;63169;46.042;14.592;2024-01-30T02:28:12;14.82;;;7.32;;
74650;SDS011;63169;46.042;14.592;2024-01-30T02:30:44;13.23;;;6.07;;
74650;SDS011;63169;46.042;14.592;2024-01-30T02:33:10;9.00;;;5.53;;
74650;SDS011;63169;46.042;14.592;2024-01-30T02:35:36;5.93;;;4.53;;
74650;SDS011;63169;46.042;14.592;2024-01-30T02:38:01;9.18;;;3.78;;
74650;SDS011;63169;46.042;14.592;2024-01-30T02:40:27;7.28;;;5.57;;
74650;SDS011;63169;46.042;14.592;2024-01-30T02:42:52;9.82;;;5.28;;
74650;SDS011;63169;46.042;14.592;2024-01-30T02:45:18;7.80;;;7.07;;
74650;SDS011;63169;46.042;14.592;2024-01-30T02:47:43;12.48;;;6.78;;
74650;SDS011;63169;46.042;14.592;2024-01-30T02:50:09;10.82;;;6.95;;
74650;SDS011;63169;46.042;14.592;2024-01-30T02:52:34;9.73;;;5.80;;
74650;SDS011;63169;46.042;14.592;2024-01-30T02:55:00;8.35;;;6.75;;
74650;SDS011;63169;46.042;14.592;2024-01-30T02:57:25;16.17;;;8.50;;
74650;SDS011;63169;46.042;14.592;2024-01-30T02:59:51;12.13;;;8.68;;
74650;SDS011;63169;46.042;14.592;2024-01-30T03:02:16;11.60;;;8.02;;
74650;SDS011;63169;46.042;14.592;2024-01-30T03:08:04;10.10;;;7.10;;
74650;SDS011;63169;46.042;14.592;2024-01-30T03:10:30;7.15;;;5.43;;
74650;SDS011;63169;46.042;14.592;2024-01-30T03:12:55;9.40;;;8.32;;
74650;SDS011;63169;46.042;14.592;2024-01-30T03:15:20;9.00;;;7.32;;
74650;SDS011;63169;46.042;14.592;2024-01-30T03:17:46;9.10;;;4.22;;
74650;SDS011;63169;46.042;14.592;2024-01-30T03:20:11;10.35;;;7.57;;
74650;SDS011;63169;46.042;14.592;2024-01-30T03:22:37;11.07;;;6.15;;
74650;SDS011;63169;46.042;14.592;2024-01-30T03:25:02;6.40;;;3.88;;
74650;SDS011;63169;46.042;14.592;2024-01-30T03:27:28;10.90;;;8.18;;
74650;SDS011;63169;46.042;14.592;2024-01-30T03:29:54;11.30;;;5.72;;
74650;SDS011;63169;46.042;14.592;2024-01-30T03:32:19;14.50;;;6.43;;
74650;SDS011;63169;46.042;14.592;2024-01-30T03:34:44;9.55;;;6.97;;
74650;SDS011;63169;46.042;14.592;2024-01-30T03:37:10;9.27;;;5.90;;
74650;SDS011;63169;46.042;14.592;2024-01-30T03:39:35;12.32;;;7.50;;
74650;SDS011;63169;46.042;14.592;2024-01-30T03:42:01;11.80;;;8.48;;
74650;SDS011;63169;46.042;14.592;2024-01-30T03:44:27;12.25;;;7.00;;
74650;SDS011;63169;46.042;14.592;2024-01-30T03:46:52;11.38;;;6.80;;
74650;SDS011;63169;46.042;14.592;2024-01-30T03:49:18;6.53;;;4.10;;
74650;SDS011;63169;46.042;14.592;2024-01-30T03:51:43;13.30;;;8.48;;
74650;SDS011;63169;46.042;14.592;2024-01-30T03:54:09;10.68;;;8.13;;
74650;SDS011;63169;46.042;14.592;2024-01-30T03:56:35;11.50;;;8.27;;
74650;SDS011;63169;46.042;14.592;2024-01-30T03:59:00;9.35;;;7.50;;
74650;SDS011;63169;46.042;14.592;2024-01-30T04:01:27;8.80;;;7.30;;
74650;SDS011;63169;46.042;14.592;2024-01-30T04:03:53;11.15;;;6.47;;
74650;SDS011;63169;46.042;14.592;2024-01-30T04:06:18;7.10;;;4.90;;
74650;SDS011;63169;46.042;14.592;2024-01-30T04:08:44;8.95;;;7.47;;
74650;SDS011;63169;46.042;14.592;2024-01-30T04:11:09;15.07;;;6.70;;
74650;SDS011;63169;46.042;14.592;2024-01-30T04:13:35;10.20;;;4.97;;
74650;SDS011;63169;46.042;14.592;2024-01-30T04:16:01;7.93;;;6.68;;
74650;SDS011;63169;46.042;14.592;2024-01-30T04:18:26;12.13;;;9.23;;
74650;SDS011;63169;46.042;14.592;2024-01-30T04:20:52;10.73;;;7.70;;
74650;SDS011;63169;46.042;14.592;2024-01-30T04:23:18;13.30;;;7.43;;
74650;SDS011;63169;46.042;14.592;2024-01-30T04:25:43;13.27;;;7.78;;
74650;SDS011;63169;46.042;14.592;2024-01-30T04:28:09;12.35;;;6.30;;
74650;SDS011;63169;46.042;14.592;2024-01-30T04:30:37;8.82;;;7.88;;
74650;SDS011;63169;46.042;14.592;2024-01-30T04:33:02;10.68;;;7.30;;
74650;SDS011;63169;46.042;14.592;2024-01-30T04:35:28;12.38;;;11.02;;
74650;SDS011;63169;46.042;14.592;2024-01-30T04:37:54;21.75;;;12.23;;
74650;SDS011;63169;46.042;14.592;2024-01-30T04:40:20;17.15;;;12.10;;
74650;SDS011;63169;46.042;14.592;2024-01-30T04:42:46;19.60;;;10.75;;
74650;SDS011;63169;46.042;14.592;2024-01-30T04:45:11;24.67;;;12.23;;
74650;SDS011;63169;46.042;14.592;2024-01-30T04:47:37;20.25;;;9.52;;
74650;SDS011;63169;46.042;14.592;2024-01-30T04:50:04;13.00;;;11.63;;
74650;SDS011;63169;46.042;14.592;2024-01-30T04:52:31;14.13;;;9.02;;
74650;SDS011;63169;46.042;14.592;2024-01-30T04:54:57;12.63;;;10.18;;
74650;SDS011;63169;46.042;14.592;2024-01-30T04:57:22;15.27;;;12.15;;
74650;SDS011;63169;46.042;14.592;2024-01-30T04:59:47;14.10;;;11.55;;
74650;SDS011;63169;46.042;14.592;2024-01-30T05:02:13;15.68;;;10.63;;
74650;SDS011;63169;46.042;14.592;2024-01-30T05:04:40;18.88;;;11.02;;
74650;SDS011;63169;46.042;14.592;2024-01-30T05:07:06;14.35;;;10.27;;
74650;SDS011;63169;46.042;14.592;2024-01-30T05:09:31;12.63;;;10.68;;
74650;SDS011;63169;46.042;14.592;2024-01-30T05:11:57;14.13;;;7.38;;
74650;SDS011;63169;46.042;14.592;2024-01-30T05:14:23;14.05;;;9.30;;
74650;SDS011;63169;46.042;14.592;2024-01-30T05:16:48;16.48;;;10.45;;
74650;SDS011;63169;46.042;14.592;2024-01-30T05:19:14;19.83;;;12.05;;
74650;SDS011;63169;46.042;14.592;2024-01-30T05:21:40;22.55;;;14.68;;
74650;SDS011;63169;46.042;14.592;2024-01-30T05:24:06;20.85;;;11.65;;
74650;SDS011;63169;46.042;14.592;2024-01-30T05:26:31;16.67;;;11.23;;
74650;SDS011;63169;46.042;14.592;2024-01-30T05:28:57;19.75;;;12.48;;
74650;SDS011;63169;46.042;14.592;2024-01-30T05:31:23;17.10;;;10.95;;
74650;SDS011;63169;46.042;14.592;2024-01-30T05:33:48;14.18;;;9.80;;
74650;SDS011;63169;46.042;14.592;2024-01-30T05:36:14;16.80;;;9.93;;
74650;SDS011;63169;46.042;14.592;2024-01-30T05:38:39;14.60;;;13.20;;
74650;SDS011;63169;46.042;14.592;2024-01-30T05:41:05;13.43;;;9.98;;
74650;SDS011;63169;46.042;14.592;2024-01-30T05:43:31;17.75;;;9.75;;
74650;SDS011;63169;46.042;14.592;2024-01-30T05:45:56;16.35;;;12.00;;
74650;SDS011;63169;46.042;14.592;2024-01-30T05:48:22;12.30;;;9.98;;
74650;SDS011;63169;46.042;14.592;2024-01-30T05:50:47;13.88;;;11.32;;
74650;SDS011;63169;46.042;14.592;2024-01-30T05:53:12;12.75;;;9.23;;
74650;SDS011;63169;46.042;14.592;2024-01-30T05:55:38;16.30;;;9.82;;
74650;SDS011;63169;46.042;14.592;2024-01-30T05:58:03;14.55;;;9.18;;
74650;SDS011;63169;46.042;14.592;2024-01-30T06:00:29;15.38;;;11.10;;
74650;SDS011;63169;46.042;14.592;2024-01-30T06:02:55;21.95;;;13.52;;
74650;SDS011;63169;46.042;14.592;2024-01-30T06:05:20;13.57;;;11.52;;
74650;SDS011;63169;46.042;14.592;2024-01-30T06:07:46;20.48;;;11.35;;
74650;SDS011;63169;46.042;14.592;2024-01-30T06:10:11;13.35;;;12.00;;
74650;SDS011;63169;46.042;14.592;2024-01-30T06:12:37;16.92;;;11.45;;
74650;SDS011;63169;46.042;14.592;2024-01-30T06:15:03;15.40;;;11.60;;
74650;SDS011;63169;46.042;14.592;2024-01-30T06:17:29;18.40;;;12.15;;
74650;SDS011;63169;46.042;14.592;2024-01-30T06:19:54;16.92;;;10.57;;
74650;SDS011;63169;46.042;14.592;2024-01-30T06:22:20;23.65;;;11.68;;
74650;SDS011;63169;46.042;14.592;2024-01-30T06:24:45;17.08;;;9.73;;
74650;SDS011;63169;46.042;14.592;2024-01-30T06:29:38;9.18;;;7.95;;
74650;SDS011;63169;46.042;14.592;2024-01-30T06:32:04;12.98;;;10.40;;
74650;SDS011;63169;46.042;14.592;2024-01-30T06:34:29;16.23;;;9.10;;
74650;SDS011;63169;46.042;14.592;2024-01-30T06:36:55;17.63;;;7.18;;
74650;SDS011;63169;46.042;14.592;2024-01-30T06:39:20;16.05;;;10.02;;
74650;SDS011;63169;46.042;14.592;2024-01-30T06:41:46;14.73;;;12.98;;
74650;SDS011;63169;46.042;14.592;2024-01-30T06:44:11;17.20;;;11.43;;
74650;SDS011;63169;46.042;14.592;2024-01-30T06:46:37;20.73;;;12.57;;
74650;SDS011;63169;46.042;14.592;2024-01-30T06:49:03;21.92;;;15.07;;
74650;SDS011;63169;46.042;14.592;2024-01-30T06:51:29;22.23;;;14.35;;
74650;SDS011;63169;46.042;14.592;2024-01-30T06:53:54;28.00;;;14.88;;
74650;SDS011;63169;46.042;14.592;2024-01-30T06:56:20;19.80;;;12.25;;
74650;SDS011;63169;46.042;14.592;2024-01-30T06:58:49;26.90;;;17.77;;
74650;SDS011;63169;46.042;14.592;2024-01-30T07:01:15;17.10;;;8.63;;
74650;SDS011;63169;46.042;14.592;2024-01-30T07:03:41;18.88;;;10.32;;
74650;SDS011;63169;46.042;14.592;2024-01-30T07:06:07;27.88;;;14.63;;
74650;SDS011;63169;46.042;14.592;2024-01-30T07:08:32;19.38;;;13.57;;
74650;SDS011;63169;46.042;14.592;2024-01-30T07:10:58;21.50;;;14.40;;
74650;SDS011;63169;46.042;14.592;2024-01-30T07:13:23;24.98;;;17.23;;
74650;SDS011;63169;46.042;14.592;2024-01-30T07:15:49;34.08;;;18.30;;
74650;SDS011;63169;46.042;14.592;2024-01-30T07:18:15;29.25;;;23.50;;
74650;SDS011;63169;46.042;14.592;2024-01-30T07:20:40;22.90;;;18.35;;
74650;SDS011;63169;46.042;14.592;2024-01-30T07:23:14;35.13;;;19.15;;
74650;SDS011;63169;46.042;14.592;2024-01-30T07:25:42;26.80;;;15.32;;
74650;SDS011;63169;46.042;14.592;2024-01-30T07:28:11;23.52;;;13.80;;
74650;SDS011;63169;46.042;14.592;2024-01-30T07:30:41;33.85;;;18.95;;
74650;SDS011;63169;46.042;14.592;2024-01-30T07:33:07;28.20;;;16.02;;
74650;SDS011;63169;46.042;14.592;2024-01-30T07:35:34;23.25;;;15.75;;
74650;SDS011;63169;46.042;14.592;2024-01-30T07:37:59;23.90;;;14.85;;
74650;SDS011;63169;46.042;14.592;2024-01-30T07:40:25;28.35;;;17.77;;
74650;SDS011;63169;46.042;14.592;2024-01-30T07:42:50;20.85;;;13.88;;
74650;SDS011;63169;46.042;14.592;2024-01-30T07:45:18;30.00;;;15.25;;
74650;SDS011;63169;46.042;14.592;2024-01-30T07:47:48;21.48;;;15.57;;
74650;SDS011;63169;46.042;14.592;2024-01-30T07:50:14;25.08;;;14.05;;
74650;SDS011;63169;46.042;14.592;2024-01-30T07:52:39;25.35;;;16.38;;
74650;SDS011;63169;46.042;14.592;2024-01-30T07:55:05;21.67;;;14.18;;
74650;SDS011;63169;46.042;14.592;2024-01-30T07:57:32;26.83;;;16.60;;
74650;SDS011;63169;46.042;14.592;2024-01-30T07:59:59;28.75;;;15.77;;
74650;SDS011;63169;46.042;14.592;2024-01-30T08:02:25;22.30;;;15.15;;
74650;SDS011;63169;46.042;14.592;2024-01-30T08:04:50;22.00;;;17.20;;
74650;SDS011;63169;46.042;14.592;2024-01-30T08:07:15;29.80;;;13.95;;
74650;SDS011;63169;46.042;14.592;2024-01-30T08:09:42;25.77;;;14.18;;
74650;SDS011;63169;46.042;14.592;2024-01-30T08:12:08;27.05;;;12.90;;
74650;SDS011;63169;46.042;14.592;2024-01-30T08:14:34;22.60;;;14.38;;
74650;SDS011;63169;46.042;14.592;2024-01-30T08:16:59;21.40;;;14.50;;
74650;SDS011;63169;46.042;14.592;2024-01-30T08:19:24;18.38;;;11.25;;
74650;SDS011;63169;46.042;14.592;2024-01-30T08:21:50;20.73;;;13.90;;
74650;SDS011;63169;46.042;14.592;2024-01-30T08:24:15;20.58;;;11.65;;
74650;SDS011;63169;46.042;14.592;2024-01-30T08:26:41;18.25;;;11.77;;
74650;SDS011;63169;46.042;14.592;2024-01-30T08:29:06;16.23;;;12.43;;
74650;SDS011;63169;46.042;14.592;2024-01-30T08:31:32;18.65;;;12.10;;
74650;SDS011;63169;46.042;14.592;2024-01-30T08:33:57;19.23;;;11.80;;
74650;SDS011;63169;46.042;14.592;2024-01-30T08:36:23;19.15;;;13.05;;
74650;SDS011;63169;46.042;14.592;2024-01-30T08:38:50;22.63;;;12.77;;
74650;SDS011;63169;46.042;14.592;2024-01-30T08:41:16;20.65;;;12.55;;
74650;SDS011;63169;46.042;14.592;2024-01-30T08:43:41;22.63;;;14.73;;
74650;SDS011;63169;46.042;14.592;2024-01-30T08:46:07;22.95;;;15.20;;
74650;SDS011;63169;46.042;14.592;2024-01-30T08:48:32;21.20;;;15.25;;
74650;SDS011;63169;46.042;14.592;2024-01-30T08:50:57;28.10;;;15.70;;
74650;SDS011;63169;46.042;14.592;2024-01-30T08:53:23;23.40;;;15.75;;
74650;SDS011;63169;46.042;14.592;2024-01-30T08:55:48;29.88;;;16.95;;
74650;SDS011;63169;46.042;14.592;2024-01-30T08:58:14;31.75;;;13.63;;
74650;SDS011;63169;46.042;14.592;2024-01-30T09:00:40;31.30;;;19.02;;
74650;SDS011;63169;46.042;14.592;2024-01-30T09:03:06;26.65;;;15.13;;
74650;SDS011;63169;46.042;14.592;2024-01-30T09:05:31;30.02;;;17.35;;
74650;SDS011;63169;46.042;14.592;2024-01-30T09:07:57;28.10;;;18.20;;
74650;SDS011;63169;46.042;14.592;2024-01-30T09:10:22;28.15;;;17.20;;
74650;SDS011;63169;46.042;14.592;2024-01-30T09:12:48;28.35;;;16.42;;
74650;SDS011;63169;46.042;14.592;2024-01-30T09:15:14;28.17;;;15.90;;
74650;SDS011;63169;46.042;14.592;2024-01-30T09:17:39;31.92;;;16.02;;
74650;SDS011;63169;46.042;14.592;2024-01-30T09:20:05;30.70;;;17.35;;
74650;SDS011;63169;46.042;14.592;2024-01-30T09:22:31;35.90;;;18.60;;
74650;SDS011;63169;46.042;14.592;2024-01-30T09:24:57;30.05;;;18.45;;
74650;SDS011;63169;46.042;14.592;2024-01-30T09:27:23;27.13;;;18.45;;
74650;SDS011;63169;46.042;14.592;2024-01-30T09:29:48;27.92;;;18.60;;
74650;SDS011;63169;46.042;14.592;2024-01-30T09:32:14;34.78;;;17.77;;
74650;SDS011;63169;46.042;14.592;2024-01-30T09:34:39;28.70;;;17.60;;
74650;SDS011;63169;46.042;14.592;2024-01-30T09:37:04;36.75;;;17.75;;
74650;SDS011;63169;46.042;14.592;2024-01-30T09:39:30;31.05;;;18.83;;
74650;SDS011;63169;46.042;14.592;2024-01-30T09:42:09;32.33;;;17.15;;
74650;SDS011;63169;46.042;14.592;2024-01-30T09:44:39;36.08;;;18.83;;
74650;SDS011;63169;46.042;14.592;2024-01-30T09:47:08;29.65;;;17.85;;
74650;SDS011;63169;46.042;14.592;2024-01-30T09:49:34;29.63;;;19.33;;
74650;SDS011;63169;46.042;14.592;2024-01-30T09:52:01;31.77;;;19.55;;
74650;SDS011;63169;46.042;14.592;2024-01-30T09:54:29;36.58;;;20.05;;
74650;SDS011;63169;46.042;14.592;2024-01-30T09:56:55;34.42;;;20.35;;
74650;SDS011;63169;46.042;14.592;2024-01-30T09:59:21;34.15;;;19.85;;
74650;SDS011;63169;46.042;14.592;2024-01-30T10:01:46;36.83;;;22.38;;
74650;SDS011;63169;46.042;14.592;2024-01-30T10:04:12;32.25;;;22.52;;
74650;SDS011;63169;46.042;14.592;2024-01-30T10:06:38;41.17;;;21.55;;
74650;SDS011;63169;46.042;14.592;2024-01-30T10:09:08;33.65;;;18.70;;
74650;SDS011;63169;46.042;14.592;2024-01-30T10:11:36;37.60;;;22.30;;
74650;SDS011;63169;46.042;14.592;2024-01-30T10:14:02;34.42;;;22.77;;
74650;SDS011;63169;46.042;14.592;2024-01-30T10:16:27;30.67;;;19.67;;
74650;SDS011;63169;46.042;14.592;2024-01-30T10:18:53;37.25;;;21.85;;
74650;SDS011;63169;46.042;14.592;2024-01-30T10:21:18;32.78;;;22.42;;
74650;SDS011;63169;46.042;14.592;2024-01-30T10:23:44;40.42;;;21.10;;
74650;SDS011;63169;46.042;14.592;2024-01-30T10:26:10;35.35;;;21.63;;
74650;SDS011;63169;46.042;14.592;2024-01-30T10:28:35;34.55;;;21.65;;
74650;SDS011;63169;46.042;14.592;2024-01-30T10:31:01;35.00;;;20.30;;
74650;SDS011;63169;46.042;14.592;2024-01-30T10:33:29;33.10;;;20.50;;
74650;SDS011;63169;46.042;14.592;2024-01-30T10:36:00;29.10;;;18.73;;
74650;SDS011;63169;46.042;14.592;2024-01-30T10:38:30;26.73;;;19.80;;
74650;SDS011;63169;46.042;14.592;2024-01-30T10:40:57;25.88;;;18.80;;
74650;SDS011;63169;46.042;14.592;2024-01-30T10:43:24;28.45;;;20.65;;
74650;SDS011;63169;46.042;14.592;2024-01-30T10:46:01;33.47;;;19.17;;
74650;SDS011;63169;46.042;14.592;2024-01-30T10:48:34;28.00;;;16.92;;
74650;SDS011;63169;46.042;14.592;2024-01-30T10:51:01;24.25;;;18.58;;
74650;SDS011;63169;46.042;14.592;2024-01-30T10:53:27;30.90;;;17.48;;
74650;SDS011;63169;46.042;14.592;2024-01-30T10:55:54;26.85;;;18.77;;
74650;SDS011;63169;46.042;14.592;2024-01-30T10:58:19;28.42;;;15.60;;
74650;SDS011;63169;46.042;14.592;2024-01-30T11:00:45;31.88;;;20.00;;
74650;SDS011;63169;46.042;14.592;2024-01-30T11:03:11;28.90;;;18.10;;
74650;SDS011;63169;46.042;14.592;2024-01-30T11:05:40;28.15;;;17.92;;
74650;SDS011;63169;46.042;14.592;2024-01-30T11:08:12;29.60;;;19.80;;
74650;SDS011;63169;46.042;14.592;2024-01-30T11:10:47;29.13;;;19.02;;
74650;SDS011;63169;46.042;14.592;2024-01-30T11:13:13;28.92;;;18.83;;
74650;SDS011;63169;46.042;14.592;2024-01-30T11:15:39;27.17;;;18.23;;
74650;SDS011;63169;46.042;14.592;2024-01-30T11:18:05;29.17;;;19.30;;
74650;SDS011;63169;46.042;14.592;2024-01-30T11:20:31;28.15;;;17.27;;
74650;SDS011;63169;46.042;14.592;2024-01-30T11:22:57;25.02;;;17.48;;
74650;SDS011;63169;46.042;14.592;2024-01-30T11:25:23;31.40;;;18.58;;
74650;SDS011;63169;46.042;14.592;2024-01-30T11:27:50;26.40;;;17.80;;
74650;SDS011;63169;46.042;14.592;2024-01-30T11:30:28;24.10;;;17.42;;
74650;SDS011;63169;46.042;14.592;2024-01-30T11:32:59;23.55;;;14.75;;
74650;SDS011;63169;46.042;14.592;2024-01-30T11:35:32;21.90;;;13.35;;
74650;SDS011;63169;46.042;14.592;2024-01-30T11:40:29;22.70;;;14.23;;
74650;SDS011;63169;46.042;14.592;2024-01-30T11:42:56;21.83;;;13.38;;
74650;SDS011;63169;46.042;14.592;2024-01-30T11:45:22;25.73;;;17.48;;
74650;SDS011;63169;46.042;14.592;2024-01-30T11:47:47;22.85;;;14.70;;
74650;SDS011;63169;46.042;14.592;2024-01-30T11:50:13;17.88;;;13.93;;
74650;SDS011;63169;46.042;14.592;2024-01-30T11:52:39;19.42;;;10.15;;
74650;SDS011;63169;46.042;14.592;2024-01-30T11:55:05;21.38;;;12.65;;
74650;SDS011;63169;46.042;14.592;2024-01-30T11:57:30;21.08;;;14.00;;
74650;SDS011;63169;46.042;14.592;2024-01-30T11:59:56;17.92;;;13.30;;
74650;SDS011;63169;46.042;14.592;2024-01-30T12:02:21;18.00;;;12.95;;
74650;SDS011;63169;46.042;14.592;2024-01-30T12:04:50;20.05;;;12.85;;
74650;SDS011;63169;46.042;14.592;2024-01-30T12:07:15;16.48;;;10.50;;
74650;SDS011;63169;46.042;14.592;2024-01-30T12:09:41;15.18;;;9.68;;
74650;SDS011;63169;46.042;14.592;2024-01-30T12:12:07;15.23;;;11.13;;
74650;SDS011;63169;46.042;14.592;2024-01-30T12:14:37;16.90;;;11.98;;
74650;SDS011;63169;46.042;14.592;2024-01-30T12:17:03;19.60;;;12.18;;
74650;SDS011;63169;46.042;14.592;2024-01-30T12:19:28;17.02;;;11.63;;
74650;SDS011;63169;46.042;14.592;2024-01-30T12:21:57;18.23;;;10.80;;
74650;SDS011;63169;46.042;14.592;2024-01-30T12:24:27;19.90;;;13.02;;
74650;SDS011;63169;46.042;14.592;2024-01-30T12:26:56;22.52;;;12.82;;
74650;SDS011;63169;46.042;14.592;2024-01-30T12:29:22;13.30;;;11.15;;
74650;SDS011;63169;46.042;14.592;2024-01-30T12:31:47;15.88;;;10.82;;
74650;SDS011;63169;46.042;14.592;2024-01-30T12:34:16;16.17;;;10.30;;
74650;SDS011;63169;46.042;14.592;2024-01-30T12:36:42;16.33;;;10.95;;
74650;SDS011;63169;46.042;14.592;2024-01-30T12:39:11;18.08;;;13.23;;
74650;SDS011;63169;46.042;14.592;2024-01-30T12:41:39;15.50;;;11.63;;
74650;SDS011;63169;46.042;14.592;2024-01-30T12:44:05;17.85;;;9.68;;
74650;SDS011;63169;46.042;14.592;2024-01-30T12:46:30;18.17;;;11.68;;
74650;SDS011;63169;46.042;14.592;2024-01-30T12:48:56;20.25;;;14.15;;
74650;SDS011;63169;46.042;14.592;2024-01-30T12:51:21;23.23;;;13.77;;
74650;SDS011;63169;46.042;14.592;2024-01-30T12:53:46;17.65;;;11.45;;
74650;SDS011;63169;46.042;14.592;2024-01-30T12:56:13;23.10;;;11.30;;
74650;SDS011;63169;46.042;14.592;2024-01-30T12:58:40;19.77;;;12.75;;
74650;SDS011;63169;46.042;14.592;2024-01-30T13:01:06;21.15;;;14.48;;
74650;SDS011;63169;46.042;14.592;2024-01-30T13:03:32;23.83;;;14.35;;
74650;SDS011;63169;46.042;14.592;2024-01-30T13:05:57;18.05;;;11.85;;
74650;SDS011;63169;46.042;14.592;2024-01-30T13:08:23;16.02;;;12.63;;
74650;SDS011;63169;46.042;14.592;2024-01-30T13:10:49;18.27;;;12.35;;
74650;SDS011;63169;46.042;14.592;2024-01-30T13:13:14;27.33;;;16.58;;
74650;SDS011;63169;46.042;14.592;2024-01-30T13:15:40;24.52;;;17.02;;
74650;SDS011;63169;46.042;14.592;2024-01-30T13:18:05;19.48;;;13.05;;
74650;SDS011;63169;46.042;14.592;2024-01-30T13:20:31;23.17;;;13.55;;
74650;SDS011;63169;46.042;14.592;2024-01-30T13:22:57;23.77;;;13.68;;
74650;SDS011;63169;46.042;14.592;2024-01-30T13:25:22;22.02;;;11.55;;
74650;SDS011;63169;46.042;14.592;2024-01-30T13:27:48;24.52;;;11.57;;
74650;SDS011;63169;46.042;14.592;2024-01-30T13:30:13;24.33;;;14.57;;
74650;SDS011;63169;46.042;14.592;2024-01-30T13:32:39;24.35;;;15.48;;
74650;SDS011;63169;46.042;14.592;2024-01-30T13:35:06;21.35;;;14.10;;
74650;SDS011;63169;46.042;14.592;2024-01-30T13:37:32;19.52;;;14.15;;
74650;SDS011;63169;46.042;14.592;2024-01-30T13:39:57;23.30;;;14.50;;
74650;SDS011;63169;46.042;14.592;2024-01-30T13:42:23;17.88;;;13.98;;
74650;SDS011;63169;46.042;14.592;2024-01-30T13:44:48;21.92;;;13.63;;
74650;SDS011;63169;46.042;14.592;2024-01-30T13:47:14;23.85;;;14.45;;
74650;SDS011;63169;46.042;14.592;2024-01-30T13:49:39;20.40;;;14.45;;
74650;SDS011;63169;46.042;14.592;2024-01-30T13:52:14;39.65;;;22.42;;
74650;SDS011;63169;46.042;14.592;2024-01-30T13:54:40;27.20;;;16.40;;
74650;SDS011;63169;46.042;14.592;2024-01-30T13:57:05;19.42;;;12.35;;
74650;SDS011;63169;46.042;14.592;2024-01-30T13:59:32;19.85;;;11.38;;
74650;SDS011;63169;46.042;14.592;2024-01-30T14:01:58;18.58;;;13.15;;
74650;SDS011;63169;46.042;14.592;2024-01-30T14:04:23;19.60;;;12.20;;
74650;SDS011;63169;46.042;14.592;2024-01-30T14:06:49;20.80;;;14.77;;
74650;SDS011;63169;46.042;14.592;2024-01-30T14:09:14;20.90;;;12.98;;
74650;SDS011;63169;46.042;14.592;2024-01-30T14:11:40;18.73;;;12.35;;
74650;SDS011;63169;46.042;14.592;2024-01-30T14:14:06;22.60;;;14.18;;
74650;SDS011;63169;46.042;14.592;2024-01-30T14:16:32;17.98;;;12.90;;
74650;SDS011;63169;46.042;14.592;2024-01-30T14:18:57;23.58;;;12.75;;
74650;SDS011;63169;46.042;14.592;2024-01-30T14:24:10;22.48;;;12.85;;
74650;SDS011;63169;46.042;14.592;2024-01-30T14:26:36;19.98;;;12.25;;